createdAt,value
2019-04-03T00:01:08.299Z,4.90
2019-04-03T00:06:11.549Z,4.90
2019-04-03T00:11:14.951Z,4.90
2019-04-03T00:16:17.739Z,4.90
2019-04-03T00:21:20.531Z,4.90
2019-04-03T00:26:24.338Z,4.90
2019-04-03T00:31:27.141Z,4.90
2019-04-03T00:36:30.507Z,5.00
2019-04-03T00:41:33.403Z,5.00
2019-04-03T00:46:36.696Z,5.00
2019-04-03T00:51:39.584Z,5.10
2019-04-03T00:56:42.548Z,5.10
2019-04-03T01:01:45.567Z,5.20
2019-04-03T01:06:48.412Z,5.30
2019-04-03T01:11:51.112Z,5.30
2019-04-03T01:16:54.999Z,5.40
2019-04-03T01:21:57.935Z,5.40
2019-04-03T01:27:01.583Z,5.40
2019-04-03T01:32:04.506Z,5.50
2019-04-03T01:37:07.430Z,5.50
2019-04-03T01:42:10.322Z,5.60
2019-04-03T01:47:13.286Z,5.60
2019-04-03T01:52:16.082Z,5.70
2019-04-03T01:57:18.885Z,5.70
2019-04-03T02:02:21.785Z,5.70
2019-04-03T02:07:24.761Z,5.80
2019-04-03T02:12:27.681Z,5.90
2019-04-03T02:17:30.731Z,5.90
2019-04-03T02:22:33.495Z,6.00
2019-04-03T02:27:36.931Z,6.00
2019-04-03T02:32:39.799Z,6.00
2019-04-03T02:37:43.044Z,6.00
2019-04-03T02:42:45.983Z,6.10
2019-04-03T02:47:48.832Z,6.10
2019-04-03T02:52:56.960Z,6.10
2019-04-03T02:57:57.214Z,6.10
2019-04-03T03:03:00.562Z,6.10
2019-04-03T03:08:03.676Z,6.20
2019-04-03T03:13:06.733Z,6.10
2019-04-03T03:18:09.854Z,6.20
2019-04-03T03:23:12.977Z,6.20
2019-04-03T03:28:17.181Z,6.20
2019-04-03T03:33:35.171Z,6.20
2019-04-03T03:38:38.295Z,6.20
2019-04-03T03:43:42.984Z,6.30
2019-04-03T03:48:45.883Z,6.30
2019-04-03T03:53:49.112Z,6.30
2019-04-03T03:58:53.207Z,6.40
2019-04-03T04:03:56.578Z,6.40
2019-04-03T04:09:01.351Z,6.40
2019-04-03T04:14:06.071Z,6.40
2019-04-03T04:19:08.966Z,6.40
2019-04-03T04:24:12.111Z,6.40
2019-04-03T04:29:16.196Z,6.40
2019-04-03T04:34:19.565Z,6.40
2019-04-03T04:39:22.828Z,6.40
2019-04-03T04:44:27.051Z,6.40
2019-04-03T04:49:29.895Z,6.40
2019-04-03T05:00:05.715Z,6.40
2019-04-03T05:05:09.176Z,6.40
2019-04-03T05:10:12.224Z,6.40
2019-04-03T05:15:15.297Z,6.50
2019-04-03T05:20:19.863Z,6.50
2019-04-03T05:25:22.814Z,6.50
2019-04-03T05:30:30.299Z,6.50
2019-04-03T05:35:33.643Z,6.60
2019-04-03T05:40:36.710Z,6.60
2019-04-03T05:45:40.991Z,6.70
2019-04-03T05:50:45.242Z,6.70
2019-04-03T05:55:48.336Z,6.70
2019-04-03T06:01:03.567Z,6.70
2019-04-03T06:05:57.570Z,6.70
2019-04-03T06:11:03.619Z,6.80
2019-04-03T06:16:06.275Z,6.80
2019-04-03T06:21:09.413Z,6.80
2019-04-03T06:26:12.376Z,6.80
2019-04-03T06:31:15.238Z,6.90
2019-04-03T06:36:19.260Z,7.00
2019-04-03T06:41:22.152Z,7.20
2019-04-03T06:46:25.067Z,7.40
2019-04-03T06:51:27.986Z,7.50
2019-04-03T06:56:32.120Z,7.60
2019-04-03T07:01:35.021Z,7.50
2019-04-03T07:06:37.793Z,7.60
2019-04-03T07:11:43.257Z,7.50
2019-04-03T07:16:45.494Z,7.60
2019-04-03T07:21:48.700Z,7.70
2019-04-03T07:26:51.689Z,7.90
2019-04-03T07:31:55.357Z,8.10
2019-04-03T07:36:58.702Z,8.20
2019-04-03T07:42:01.563Z,8.20
2019-04-03T07:47:06.509Z,8.30
2019-04-03T07:52:09.711Z,8.50
2019-04-03T07:57:16.206Z,8.70
2019-04-03T08:02:18.853Z,8.90
2019-04-03T08:07:21.693Z,9.10
2019-04-03T08:12:24.491Z,9.20
2019-04-03T08:17:27.938Z,9.30
2019-04-03T08:22:32.753Z,9.50
2019-04-03T08:27:35.830Z,9.80
2019-04-03T08:32:38.631Z,10.40
2019-04-03T08:37:42.214Z,11.20
2019-04-03T08:42:45.268Z,11.50
2019-04-03T08:47:48.307Z,11.40
2019-04-03T08:52:51.297Z,11.20
2019-04-03T08:57:54.239Z,11.20
2019-04-03T09:02:57.117Z,11.20
2019-04-03T09:08:01.023Z,11.20
2019-04-03T09:13:16.202Z,11.20
2019-04-03T09:18:09.815Z,11.30
2019-04-03T09:23:12.871Z,11.50
2019-04-03T09:28:16.158Z,11.70
2019-04-03T09:33:19.615Z,11.90
2019-04-03T09:38:22.348Z,12.20
2019-04-03T09:43:25.708Z,12.50
2019-04-03T09:48:28.785Z,12.60
2019-04-03T09:53:31.639Z,12.50
2019-04-03T09:58:35.611Z,12.60
2019-04-03T10:03:39.744Z,13.00
2019-04-03T10:08:42.623Z,13.10
2019-04-03T10:13:45.557Z,13.20
2019-04-03T10:18:48.304Z,13.50
2019-04-03T10:23:51.207Z,13.30
2019-04-03T10:28:53.945Z,13.20
2019-04-03T10:33:56.719Z,13.10
2019-04-03T10:38:59.629Z,13.20
2019-04-03T10:44:03.141Z,13.50
2019-04-03T10:49:05.757Z,13.90
2019-04-03T10:54:10.962Z,14.20
2019-04-03T10:59:15.890Z,14.40
2019-04-03T11:04:19.278Z,14.30
2019-04-03T11:09:22.367Z,14.40
2019-04-03T11:14:25.156Z,14.80
2019-04-03T11:19:28.213Z,15.10
2019-04-03T11:24:31.346Z,15.20
2019-04-03T11:29:34.362Z,15.10
2019-04-03T11:34:37.175Z,14.90
2019-04-03T11:39:40.963Z,14.50
2019-04-03T11:44:43.754Z,14.40
2019-04-03T11:49:46.789Z,14.60
2019-04-03T11:54:52.199Z,14.80
2019-04-03T11:59:55.400Z,15.20
2019-04-03T12:04:59.094Z,15.50
2019-04-03T12:10:04.214Z,15.80
2019-04-03T12:15:07.750Z,16.10
2019-04-03T12:20:11.254Z,16.40
2019-04-03T12:25:14.344Z,16.40
2019-04-03T12:30:17.752Z,15.90
2019-04-03T12:35:20.685Z,16.00
2019-04-03T12:40:23.779Z,16.00
2019-04-03T12:45:27.535Z,15.80
2019-04-03T12:50:32.398Z,15.70
2019-04-03T12:55:36.525Z,16.10
2019-04-03T13:00:40.604Z,16.30
2019-04-03T13:05:43.903Z,16.80
2019-04-03T13:10:49.039Z,17.10
2019-04-03T13:15:52.615Z,16.90
2019-04-03T13:20:55.509Z,17.00
2019-04-03T13:25:59.471Z,16.90
2019-04-03T13:31:04.061Z,16.90
2019-04-03T13:36:07.315Z,17.00
2019-04-03T13:41:11.827Z,16.80
2019-04-03T13:46:14.709Z,16.70
2019-04-03T13:51:17.868Z,16.60
2019-04-03T13:56:23.188Z,16.70
2019-04-03T14:01:27.608Z,16.70
2019-04-03T14:06:30.076Z,16.70
2019-04-03T14:11:33.254Z,16.70
2019-04-03T14:16:36.083Z,16.60
2019-04-03T14:21:39.015Z,16.80
2019-04-03T14:26:44.311Z,16.60
2019-04-03T14:31:48.920Z,16.70
2019-04-03T14:36:52.675Z,16.70
2019-04-03T14:41:56.171Z,16.60
2019-04-03T14:46:59.478Z,16.40
2019-04-03T14:52:02.975Z,16.30
2019-04-03T14:57:15.587Z,16.10
2019-04-03T15:02:11.512Z,15.80
2019-04-03T15:07:17.149Z,15.80
2019-04-03T15:12:19.329Z,15.80
2019-04-03T15:17:22.501Z,15.70
2019-04-03T15:22:25.770Z,15.50
2019-04-03T15:27:29.152Z,15.50
2019-04-03T15:32:32.412Z,15.40
2019-04-03T15:37:35.178Z,15.30
2019-04-03T15:42:42.982Z,15.20
2019-04-03T15:47:47.283Z,15.00
2019-04-03T15:52:50.756Z,15.00
2019-04-03T15:57:57.328Z,14.90
2019-04-03T16:03:00.330Z,14.90
2019-04-03T16:08:04.153Z,14.90
2019-04-03T16:13:07.234Z,14.90
2019-04-03T16:18:10.685Z,14.90
2019-04-03T16:23:13.815Z,14.80
2019-04-03T16:28:19.544Z,14.60
2019-04-03T16:33:24.684Z,14.60
2019-04-03T16:38:28.478Z,14.50
2019-04-03T16:43:33.214Z,14.50
2019-04-03T16:48:38.589Z,14.30
2019-04-03T16:53:41.424Z,14.10
2019-04-03T16:58:47.867Z,14.00
2019-04-03T17:03:50.653Z,13.90
2019-04-03T17:08:54.406Z,13.70
2019-04-03T17:13:58.082Z,13.60
2019-04-03T17:19:01.203Z,13.40
2019-04-03T17:24:04.309Z,13.30
2019-04-03T17:29:07.483Z,13.20
2019-04-03T17:34:11.716Z,13.00
2019-04-03T17:39:15.897Z,12.90
2019-04-03T17:44:20.138Z,12.70
2019-04-03T17:49:24.561Z,12.60
2019-04-03T17:54:28.147Z,12.40
2019-04-03T17:59:31.784Z,12.30
2019-04-03T18:04:34.569Z,12.20
2019-04-03T18:09:42.040Z,12.10
2019-04-03T18:14:48.450Z,11.90
2019-04-03T18:19:52.051Z,11.80
2019-04-03T18:24:58.380Z,11.70
2019-04-03T18:30:01.350Z,11.70
2019-04-03T18:35:07.272Z,11.60
2019-04-03T18:40:13.959Z,11.60
2019-04-03T18:45:24.906Z,11.50
2019-04-03T18:50:20.053Z,11.50
2019-04-03T18:55:24.429Z,11.40
2019-04-03T19:00:30.421Z,11.40
2019-04-03T19:05:31.933Z,11.30
2019-04-03T19:10:34.932Z,11.20
2019-04-03T19:15:38.196Z,11.10
2019-04-03T19:20:42.115Z,11.00
2019-04-03T19:25:45.328Z,10.90
2019-04-03T19:30:48.198Z,10.80
2019-04-03T19:35:51.581Z,10.80
2019-04-03T19:40:54.313Z,10.70
2019-04-03T19:45:57.496Z,10.60
2019-04-03T19:51:02.698Z,10.50
2019-04-03T19:56:06.527Z,10.50
2019-04-03T20:01:15.240Z,10.50
2019-04-03T20:06:18.170Z,10.50
2019-04-03T20:11:23.962Z,10.50
2019-04-03T20:16:31.633Z,10.50
2019-04-03T20:21:35.883Z,10.50
2019-04-03T20:26:39.072Z,10.40
2019-04-03T20:31:41.874Z,10.50
2019-04-03T20:36:45.356Z,10.50
2019-04-03T20:41:48.128Z,10.40
2019-04-03T20:46:50.900Z,10.30
2019-04-03T20:51:53.565Z,10.30
2019-04-03T20:56:58.099Z,10.20
2019-04-03T21:02:01.443Z,10.20
2019-04-03T21:07:04.167Z,10.10
2019-04-03T21:12:06.856Z,10.00
2019-04-03T21:17:09.655Z,10.00
2019-04-03T21:22:12.446Z,10.00
2019-04-03T21:27:15.220Z,9.90
2019-04-03T21:32:17.985Z,9.90
2019-04-03T21:37:20.660Z,9.80
2019-04-03T21:42:25.010Z,9.80
2019-04-03T21:47:28.031Z,9.80
2019-04-03T21:52:30.753Z,9.70
2019-04-03T21:57:33.482Z,9.70
2019-04-03T22:02:36.288Z,9.60
2019-04-03T22:07:42.814Z,9.60
2019-04-03T22:12:46.066Z,9.60
2019-04-03T22:17:52.403Z,9.50
2019-04-03T22:22:54.446Z,9.50
2019-04-03T22:27:57.141Z,9.40
2019-04-03T22:32:59.890Z,9.40
2019-04-03T22:38:05.298Z,9.40
2019-04-03T22:43:07.130Z,9.30
2019-04-03T22:48:11.076Z,9.30
2019-04-03T22:53:13.855Z,9.30
2019-04-03T22:58:16.692Z,9.20
2019-04-03T23:03:19.433Z,9.20
2019-04-03T23:08:22.775Z,9.10
2019-04-03T23:13:26.116Z,9.10
2019-04-03T23:18:28.870Z,9.00
2019-04-03T23:23:31.715Z,8.90
2019-04-03T23:28:34.654Z,8.80
2019-04-03T23:33:37.519Z,8.70
2019-04-03T23:38:40.498Z,8.60
2019-04-03T23:43:43.311Z,8.50
2019-04-03T23:48:48.665Z,8.40
2019-04-03T23:53:50.748Z,8.40
2019-04-03T23:58:53.493Z,8.30
